Flight Track Log - Related Links

Times and Time Zones

All times are in EDT time to prevent confusion due to time zone crossing. See the CDG4988 flight status page for this flight to view local times or setup timezone preferences in your user account.

Time Position Orientation Groundspeed Altitude Reporting Facility
EDT Latitude Longitude Course Direction KTS MPH feet Rate Location/Type
Sat 07:53:00 AM 30.9681 120.0979 339° North  Level Estimated
Sat 07:54:00 AM 31.0502 120.0604 339° North  Level Estimated
Sat 07:55:00 AM 31.1323 120.0230 339° North  Level Estimated
Sat 07:56:00 AM 31.2054 119.9896 339° North  Level Estimated
Sat 07:57:00 AM 31.2785 119.9561 339° North  Level Estimated
Sat 07:58:00 AM 31.3516 119.9226 339° North  Level Estimated
Sat 07:59:00 AM 31.4247 119.8890 339° North  Level Estimated
Sat 08:00:00 AM 31.4977 119.8554 339° North  Level Estimated
Sat 08:01:00 AM 31.5708 119.8217 339° North  Level Estimated
Sat 08:02:00 AM 31.6438 119.7880 339° North  Level Estimated
Sat 08:03:00 AM 31.7168 119.7542 339° North  Level Estimated
Sat 08:04:00 AM 31.7899 119.7204 339° North  Level Estimated
Sat 08:05:00 AM 31.8629 119.6865 338° Northwest  Level Estimated
Sat 08:06:00 AM 31.9359 119.6526 338° Northwest  Level Estimated
Sat 08:07:00 AM 32.0089 119.6186 338° Northwest  Level Estimated
Sat 08:08:00 AM 32.0819 119.5846 338° Northwest  Level Estimated
Sat 08:09:00 AM 32.1548 119.5505 338° Northwest  Level Estimated
Sat 08:10:00 AM 32.2278 119.5163 338° Northwest  Level Estimated
Sat 08:11:00 AM 32.3008 119.4821 338° Northwest  Level Estimated
Sat 08:12:00 AM 32.3737 119.4479 338° Northwest  Level Estimated
Sat 08:13:00 AM 32.4467 119.4135 338° Northwest  Level Estimated
Sat 08:14:00 AM 32.5196 119.3792 338° Northwest  Level Estimated
Sat 08:15:00 AM 32.5925 119.3447 338° Northwest  Level Estimated
Sat 08:16:00 AM 32.6654 119.3102 338° Northwest  Level Estimated
Sat 08:17:00 AM 32.7383 119.2757 338° Northwest  Level Estimated
Sat 08:18:00 AM 32.8112 119.2411 338° Northwest  Level Estimated
Sat 08:19:00 AM 32.8841 119.2064 338° Northwest  Level Estimated
Sat 08:20:00 AM 32.9570 119.1717 338° Northwest  Level Estimated
Sat 08:21:00 AM 33.0298 119.1370 338° Northwest  Level Estimated
Sat 08:22:00 AM 33.1027 119.1021 338° Northwest  Level Estimated
Sat 08:23:00 AM 33.1755 119.0673 338° Northwest  Level Estimated
Sat 08:24:00 AM 33.2484 119.0323 338° Northwest  Level Estimated
Sat 08:25:00 AM 33.3212 118.9973 338° Northwest  Level Estimated
Sat 08:26:00 AM 33.3940 118.9622 338° Northwest  Level Estimated
Sat 08:27:00 AM 33.4669 118.9271 338° Northwest  Level Estimated
Sat 08:28:00 AM 33.5396 118.8920 338° Northwest  Level Estimated
Sat 08:29:00 AM 33.6124 118.8567 338° Northwest  Level Estimated
Sat 08:30:00 AM 33.6852 118.8214 338° Northwest  Level Estimated
Sat 08:31:00 AM 33.7580 118.7860 338° Northwest  Level Estimated
Sat 08:32:00 AM 33.8307 118.7506 338° Northwest  Level Estimated
Sat 08:33:00 AM 33.9035 118.7151 338° Northwest  Level Estimated
Sat 08:34:00 AM 33.9762 118.6796 338° Northwest  Level Estimated
Sat 08:35:00 AM 34.0490 118.6440 338° Northwest  Level Estimated
Sat 08:36:00 AM 34.1217 118.6084 338° Northwest  Level Estimated
Sat 08:37:00 AM 34.1944 118.5726 338° Northwest  Level Estimated
Sat 08:38:00 AM 34.2671 118.5368 338° Northwest  Level Estimated
Sat 08:39:00 AM 34.3398 118.5010 338° Northwest  Level Estimated
Sat 08:40:00 AM 34.4124 118.4651 338° Northwest  Level Estimated
Sat 08:41:00 AM 34.4851 118.4291 338° Northwest  Level Estimated
Sat 08:42:00 AM 34.5578 118.3931 338° Northwest  Level Estimated
Sat 08:43:00 AM 34.6304 118.3570 338° Northwest  Level Estimated
Sat 08:44:00 AM 34.7030 118.3208 338° Northwest  Level Estimated
Sat 08:45:00 AM 34.7757 118.2846 338° Northwest  Level Estimated
Sat 08:46:00 AM 34.8483 118.2483 338° Northwest  Level Estimated
Sat 08:47:00 AM 34.9209 118.2120 338° Northwest  Level Estimated
Sat 08:48:00 AM 34.9935 118.1756 338° Northwest  Level Estimated
Sat 08:49:00 AM 35.0660 118.1391 338° Northwest  Level Estimated
Sat 08:50:00 AM 35.1386 118.1026 338° Northwest  Level Estimated
Sat 08:51:00 AM 35.2112 118.0659 338° Northwest  Level Estimated
Sat 08:52:00 AM 35.2837 118.0293 338° Northwest  Level Estimated
Sat 08:53:00 AM 35.3562 117.9925 338° Northwest  Level Estimated
Sat 08:54:00 AM 35.4288 117.9557 338° Northwest  Level Estimated
Sat 08:55:00 AM 35.5013 117.9189 338° Northwest  Level Estimated
Sat 08:56:00 AM 35.5738 117.8819 337° Northwest  Level Estimated
Sat 08:57:00 AM 35.6463 117.8449 337° Northwest  Level Estimated
Sat 08:58:00 AM 35.7187 117.8078 337° Northwest  Level Estimated
Sat 08:59:00 AM 35.7912 117.7707 337° Northwest  Level Estimated
Sat 09:00:00 AM 35.8637 117.7335 337° Northwest  Level Estimated
Sat 09:01:00 AM 35.9361 117.6962 337° Northwest  Level Estimated
Sat 09:02:00 AM 36.0085 117.6589 337° Northwest  Level Estimated
Sat 09:03:00 AM 36.0810 117.6215 337° Northwest  Level Estimated
Sat 09:04:00 AM 36.1534 117.5840 337° Northwest  Level Estimated
Sat 09:05:00 AM 36.2258 117.5464 337° Northwest  Level Estimated
Sat 09:06:00 AM 36.2982 117.5088 337° Northwest  Level Estimated
Sat 09:07:00 AM 36.3705 117.4711 337° Northwest  Level Estimated
Sat 09:08:00 AM 36.4429 117.4334 337° Northwest  Level Estimated
Sat 09:09:00 AM 36.5152 117.3955 337° Northwest  Level Estimated
Sat 09:10:00 AM 36.5876 117.3576 337° Northwest  Level Estimated
Sat 09:11:00 AM 36.6599 117.3196 337° Northwest  Level Estimated
Sat 09:12:00 AM 36.7322 117.2816 337° Northwest  Level Estimated
Sat 09:13:00 AM 36.8045 117.2435 337° Northwest  Level Estimated
Sat 09:14:00 AM 36.8566 117.2160 337° Northwest  Level Estimated
Sat 09:15:00 AM 36.8566 117.2160 73° East  Level Estimated
Sat 09:16:00 AM 36.8566 117.2160 73° East  Level Estimated
Sat 09:17:00 AM 36.8566 117.2160 73° East  Level Estimated
Sat 09:18:00 AM 36.8566 117.2160 73° East  Level Estimated
Sat 09:19:00 AM 36.8566 117.2160 73° East  Level Estimated

Login

Don't have an account? Register now (free) for customized features, flight alerts, and more!